KMLB/MLB METAR and TAF weather

Enter ICAO airport designator
Station Type Date Time Source
KMLB METAR 2022/01/26 07:53 UTC NOAA

KMLB 260753Z AUTO 36005KT 8SM -RA OVC050 13/13 A3000 RMK AO2 RAB13 SLP159 P0001 T01330128


Station Type Date Time Source
KMLB Decoded METAR 2022/01/26 07:53 UTC NOAA

MELBOURNE INTERNATIONAL, FL, United States (KMLB) 28-06N 080-39W 10M
Jan 26, 2022 - 02:53 AM EST / 2022.01.26 0753 UTC
Wind: from the N (360 degrees) at 6 MPH (5 KT):0
Visibility: 8 mile(s):0
Sky conditions: overcast
Weather: light rain
Precipitation last hour: 0.01 inches
Temperature: 55.9 F (13.3 C)
Dew Point: 55.0 F (12.8 C)
Relative Humidity: 96%
Pressure (altimeter): 30 in. Hg (1015 hPa)
ob: KMLB 260753Z AUTO 36005KT 8SM -RA OVC050 13/13 A3000 RMK AO2 RAB13 SLP159 P0001 T01330128
cycle: 8

Station Type Date Time Source
KMLB TAF 2022/01/26 06:27 UTC NOAA

TAF KMLB 260525Z 2606/2706 35006KT 6SM -SHRA BR SCT030 OVC050
FM261100 01007KT P6SM SHRA BKN025 OVC050
FM261600 04008KT P6SM VCSH BKN025 BKN050
FM262000 02010KT P6SM BKN025 BKN050

Example: see airport list